New Orleans, Louisiana
Traffic Map
Current Weather Conditions
New Orleans, Louisiana
Clear
Clear
66°
Feels Like: 66°
Wind Chill: 66° Ceiling: Unl
Heat Index: 66° Visibility: 10mi
Dew Point: 48° Wind: 5mph
Humidity: 52% Direction: 30° (NNE)
Pressure: 30.17in Gusts: 0mph
Raw Report DataKVSH 251435Z AUTO 03004KT 10SM CLR 19/09 A3017 RMK AO1
Traffic Incident Summary
Active as of:
Severity:
Category:
InformationThere was an issue retrieving the traffic information for this location. Please try a different location or try again shortly.
Advertisements
Track Severe Weather on mobile